CDT,Max TemperatureF,Mean TemperatureF,Min TemperatureF,Max Dew PointF,MeanDew PointF,Min DewpointF,Max Humidity, Mean Humidity, Min Humidity, Max Sea Level PressureIn, Mean Sea Level PressureIn, Min Sea Level PressureIn, Max VisibilityMiles, Mean VisibilityMiles, Min VisibilityMiles, Max Wind SpeedMPH, Mean Wind SpeedMPH, Max Gust SpeedMPH,PrecipitationIn, CloudCover, Events, WindDirDegrees
2013-10-1,87,83,79,77,75,72,89,79,71,29.90,29.86,29.82,10,10,10,16,11,22,0.03,4,Thunderstorm,171
2013-10-2,87,82,78,76,74,71,82,74,67,29.94,29.89,29.86,10,10,7,15,11,22,0.02,2,Rain,153
2013-10-3,87,82,77,75,73,71,87,71,60,29.93,29.89,29.86,10,10,10,15,11,22,0.00,3,,155
2013-10-4,87,84,80,74,73,72,80,73,66,29.91,29.88,29.86,10,10,7,15,12,21,0.00,3,,152
2013-10-5,86,82,78,76,74,72,83,76,67,29.92,29.88,29.84,10,10,7,14,9,17,0.00,2,,138
2013-10-6,80,69,58,75,56,47,91,66,35,30.11,30.04,29.92,10,10,3,25,14,36,0.31,5,Rain,1
2013-10-7,79,70,62,55,51,44,70,49,28,30.15,30.09,30.04,10,10,10,12,7,,0.00,0,,16
2013-10-8,79,72,64,63,59,54,85,62,47,30.08,30.03,29.99,10,10,10,9,3,,0.00,0,,59
2013-10-9,83,78,74,65,62,59,64,58,50,30.04,29.99,29.95,10,10,10,12,8,20,0.00,3,,136
2013-10-10,85,80,77,71,68,64,76,66,55,30.01,29.95,29.90,10,10,5,18,11,24,0.00,4,,143
2013-10-11,86,82,78,77,75,70,90,80,72,29.92,29.88,29.83,10,10,10,18,14,24,0.00,4,,148
2013-10-12,86,83,80,79,77,76,92,85,74,30.00,29.94,29.88,10,10,10,15,11,20,0.00,3,,156
2013-10-13,84,80,77,77,75,73,92,84,74,30.09,30.03,29.99,10,10,4,17,10,24,0.11,5,Rain,138
2013-10-14,86,82,78,76,72,69,89,73,63,30.05,29.99,29.93,10,10,10,16,12,24,0.00,3,Rain,145
2013-10-15,85,82,79,72,71,70,78,71,62,29.97,29.92,29.86,10,10,10,16,12,21,0.00,2,,157
2013-10-16,82,73,65,73,68,61,93,80,71,30.03,29.94,29.88,10,10,2,22,11,25,0.10,4,Rain,17
2013-10-17,76,70,64,62,59,55,85,71,55,30.08,30.01,29.95,10,10,10,16,11,20,0.00,6,,29
2013-10-18,78,76,73,74,71,64,93,83,73,29.97,29.88,29.80,10,10,4,17,10,23,0.07,6,Rain-Thunderstorm,88
2013-10-19,73,68,62,73,58,48,93,73,49,30.12,30.03,29.88,10,10,1,26,15,33,1.53,4,Rain-Thunderstorm,14
2013-10-20,76,66,58,64,58,48,85,70,58,30.07,30.00,29.92,10,10,10,12,8,16,0.00,3,,57
2013-10-21,78,73,68,73,69,64,94,84,69,29.95,29.91,29.86,10,9,1,16,7,21,1.22,7,Rain-Thunderstorm,103
2013-10-22,78,70,63,68,60,51,96,73,46,30.11,30.04,29.95,10,10,5,23,10,24,0.01,2,,1
2013-10-23,79,69,60,58,51,39,87,57,24,30.18,30.12,30.09,10,10,10,9,6,,0.00,0,,29
2013-10-24,78,70,63,64,60,53,91,67,51,30.21,30.16,30.11,10,10,10,12,5,,0.00,1,,66
2013-10-25,81,76,71,67,64,58,75,65,58,30.27,30.21,30.18,10,10,10,15,8,21,0.00,1,,105
2013-10-26,81,78,75,70,67,64,83,70,60,30.19,30.13,30.06,10,10,7,15,11,21,0.00,3,,134
2013-10-27,81,76,71,72,70,68,93,81,69,30.08,30.03,29.98,10,9,4,10,6,,0.09,2,Rain,152
2013-10-28,82,78,74,72,71,70,90,80,70,30.07,30.02,29.99,10,10,10,16,9,24,0.00,1,,143
2013-10-29,82,79,76,75,72,70,90,81,71,30.09,30.03,29.98,10,10,10,16,12,23,0.00,1,,140
2013-10-30,83,80,77,76,75,74,94,89,80,30.01,29.93,29.84,10,8,7,16,13,22,0.00,4,,156
2013-10-31,85,80,76,77,75,68,94,87,70,29.88,29.83,29.78,10,7,3,21,12,28,0.04,5,Rain-Thunderstorm,184